Time;durP1;ratioP1;P1;durP2;ratioP2;P2;SDS_P1;SDS_P2;PMS_P1;PMS_P2;Temp;Humidity;BMP_temperature;BMP_pressure;BME280_temperature;BME280_humidity;BME280_pressure;Samples;Min_cycle;Max_cycle;Signal;HPM_P1;HPM_P2
2021/06/26 00:01:30;;;;;;;6.05;1.30;;;;;;;30.73;36.36;99264.64;1778524;78;21049;-46
2021/06/26 00:03:56;;;;;;;7.47;1.32;;;;;;;30.71;36.52;99260.41;1787443;77;21516;-47
2021/06/26 00:06:24;;;;;;;6.35;1.67;;;;;;;30.70;36.64;99262.30;1778244;78;21101;-46
2021/06/26 00:08:52;;;;;;;8.95;1.55;;;;;;;30.67;36.80;99250.45;1774944;77;42889;-47
2021/06/26 00:11:22;;;;;;;11.73;1.50;;;;;;;30.67;36.95;99254.52;1784358;79;21077;-43
2021/06/26 00:13:48;;;;;;;5.87;2.05;;;;;;;30.65;37.16;99245.73;1800883;78;21021;-47
2021/06/26 00:16:15;;;;;;;12.58;2.08;;;;;;;30.61;37.43;99251.20;1776629;78;21030;-45
2021/06/26 00:18:41;;;;;;;7.95;2.10;;;;;;;30.59;37.67;99255.16;1758407;79;21461;-48
2021/06/26 00:21:08;;;;;;;11.43;2.27;;;;;;;30.56;37.93;99260.43;1781570;78;21061;-46
2021/06/26 00:23:35;;;;;;;5.25;1.72;;;;;;;30.53;38.19;99260.80;1785835;78;21150;-42
2021/06/26 00:26:02;;;;;;;11.12;2.33;;;;;;;30.49;38.31;99265.77;1775676;78;21617;-47
2021/06/26 00:28:28;;;;;;;5.10;1.87;;;;;;;30.48;38.47;99264.59;1791329;77;21003;-47
2021/06/26 00:30:55;;;;;;;15.72;3.02;;;;;;;30.46;38.65;99255.80;1798118;79;21065;-45
2021/06/26 00:33:22;;;;;;;12.75;2.37;;;;;;;30.45;38.84;99250.91;1777926;79;21048;-45
2021/06/26 00:35:48;;;;;;;7.53;2.10;;;;;;;30.41;38.96;99271.30;1759187;80;21011;-46
2021/06/26 00:38:15;;;;;;;12.65;2.30;;;;;;;30.36;39.20;99261.52;1770348;80;21062;-47
2021/06/26 00:40:42;;;;;;;7.10;2.30;;;;;;;30.30;39.27;99261.73;1765734;79;21073;-47
2021/06/26 00:43:09;;;;;;;8.83;2.10;;;;;;;30.30;39.29;99267.68;1727720;80;21043;-46
2021/06/26 00:45:38;;;;;;;10.85;2.65;;;;;;;30.28;39.30;99247.52;1750620;79;21045;-43
2021/06/26 00:48:06;;;;;;;6.12;2.35;;;;;;;30.31;39.26;99251.21;1765443;79;21106;-43
2021/06/26 00:50:33;;;;;;;8.93;2.12;;;;;;;30.34;39.22;99252.17;1726543;80;21058;-46
2021/06/26 00:52:59;;;;;;;9.70;2.02;;;;;;;30.37;39.16;99259.97;1738838;80;21082;-44
2021/06/26 00:55:27;;;;;;;10.53;1.95;;;;;;;30.40;39.09;99255.22;1725643;80;21054;-44
2021/06/26 00:57:59;;;;;;;6.65;2.20;;;;;;;30.42;39.04;99250.44;1771165;79;21638;-45
2021/06/26 01:00:26;;;;;;;8.05;2.17;;;;;;;30.45;38.94;99255.50;1751572;80;21132;-48
2021/06/26 01:02:53;;;;;;;9.05;2.05;;;;;;;30.47;38.90;99242.58;1748590;80;21512;-44
2021/06/26 01:05:20;;;;;;;9.63;1.72;;;;;;;30.48;38.84;99243.74;1734376;80;21043;-44
2021/06/26 01:07:47;;;;;;;5.90;1.72;;;;;;;30.49;38.82;99253.55;1752840;79;21106;-47
2021/06/26 01:10:14;;;;;;;9.90;2.50;;;;;;;30.40;38.87;99252.51;1761504;80;21032;-45
2021/06/26 01:12:41;;;;;;;8.10;2.15;;;;;;;30.23;38.84;99244.52;1751945;79;22279;-46
2021/06/26 01:15:13;;;;;;;5.15;1.80;;;;;;;29.99;39.12;99249.67;1765244;80;22164;-45
2021/06/26 01:17:41;;;;;;;10.55;2.20;;;;;;;29.80;39.51;99246.99;1741848;79;21057;-47
2021/06/26 01:20:10;;;;;;;11.88;2.15;;;;;;;29.74;39.58;99247.19;1755853;79;21063;-47
2021/06/26 01:22:51;;;;;;;6.20;1.85;;;;;;;29.72;39.59;99257.88;1774119;79;21537;-46
2021/06/26 01:25:10;;;;;;;6.00;1.60;;;;;;;29.71;39.47;99264.34;1737026;80;21815;-46
2021/06/26 01:27:36;;;;;;;5.65;1.90;;;;;;;29.67;39.31;99269.78;1751679;80;21100;-43
2021/06/26 01:30:05;;;;;;;8.45;2.33;;;;;;;29.56;39.41;99265.13;1756119;79;21037;-43
2021/06/26 01:32:32;;;;;;;7.28;2.00;;;;;;;29.43;39.47;99264.38;1738919;80;20958;-44
2021/06/26 01:34:58;;;;;;;6.65;1.70;;;;;;;29.32;39.71;99270.73;1739591;80;21017;-43
2021/06/26 01:37:25;;;;;;;12.70;2.00;;;;;;;29.18;39.86;99263.71;1716626;80;22249;-46
2021/06/26 01:39:51;;;;;;;6.00;1.80;;;;;;;29.09;40.08;99267.48;1713622;80;21029;-45
2021/06/26 01:42:18;;;;;;;11.45;2.00;;;;;;;29.05;40.22;99260.72;1737845;80;21028;-47
2021/06/26 01:44:44;;;;;;;7.45;1.80;;;;;;;29.08;40.26;99257.66;1714620;80;21000;-46
2021/06/26 01:47:11;;;;;;;7.87;2.47;;;;;;;29.15;39.99;99254.58;1755193;78;21547;-47
2021/06/26 01:49:38;;;;;;;37.30;20.43;;;;;;;29.14;40.05;99252.05;1767309;78;22201;-47
2021/06/26 01:52:07;;;;;;;26.25;13.62;;;;;;;29.12;39.92;99254.94;1772727;79;21075;-51
2021/06/26 01:54:34;;;;;;;15.58;8.10;;;;;;;29.09;39.95;99245.81;1782850;78;22272;-51
2021/06/26 01:57:00;;;;;;;10.00;5.65;;;;;;;29.11;39.90;99243.75;1784047;79;21030;-49
2021/06/26 01:59:27;;;;;;;15.20;4.70;;;;;;;29.12;39.88;99244.10;1743272;80;21046;-52
2021/06/26 02:01:54;;;;;;;9.18;3.50;;;;;;;29.15;39.87;99243.75;1764828;80;21534;-44
2021/06/26 02:04:21;;;;;;;10.58;3.20;;;;;;;29.15;39.82;99242.39;1788837;78;20966;-51
2021/06/26 02:06:48;;;;;;;8.60;2.98;;;;;;;29.14;39.82;99248.82;1789046;79;21003;-49
2021/06/26 02:09:14;;;;;;;7.83;2.67;;;;;;;29.11;39.84;99241.57;1762068;78;21054;-49
2021/06/26 02:11:41;;;;;;;7.12;3.20;;;;;;;29.06;39.92;99241.58;1784692;78;21646;-49
2021/06/26 02:14:08;;;;;;;9.18;2.35;;;;;;;29.04;40.00;99248.22;1779997;79;22330;-50
2021/06/26 02:16:35;;;;;;;8.95;2.52;;;;;;;29.04;40.05;99249.05;1776899;78;21102;-48
2021/06/26 02:19:03;;;;;;;6.97;2.35;;;;;;;29.06;40.03;99238.87;1766243;79;21102;-47
2021/06/26 02:21:30;;;;;;;7.37;2.10;;;;;;;29.08;40.01;99242.27;1748858;80;21073;-50
2021/06/26 02:23:57;;;;;;;9.85;2.62;;;;;;;29.11;39.93;99244.28;1749544;79;21011;-50
2021/06/26 02:26:24;;;;;;;8.13;2.00;;;;;;;29.11;39.91;99233.44;1770845;79;22007;-48
2021/06/26 02:28:50;;;;;;;4.90;1.80;;;;;;;29.11;39.92;99230.21;1781237;78;21043;-49
2021/06/26 02:31:17;;;;;;;5.87;1.70;;;;;;;29.14;39.87;99221.73;1738948;80;21002;-50
2021/06/26 02:33:44;;;;;;;11.28;1.92;;;;;;;29.17;39.82;99215.98;1752549;80;21065;-44
2021/06/26 02:36:10;;;;;;;11.60;2.60;;;;;;;29.22;39.73;99217.64;1780441;79;21020;-51
2021/06/26 02:38:37;;;;;;;6.87;2.10;;;;;;;29.27;39.64;99213.88;1768062;79;21090;-50
2021/06/26 02:41:03;;;;;;;14.45;1.80;;;;;;;29.34;39.55;99209.09;1780623;79;20908;-46
2021/06/26 02:43:30;;;;;;;7.75;2.02;;;;;;;29.38;39.47;99210.41;1742388;80;21010;-45
2021/06/26 02:45:56;;;;;;;5.12;2.17;;;;;;;29.43;39.38;99218.83;1746768;80;21043;-49
2021/06/26 02:48:23;;;;;;;8.25;1.87;;;;;;;29.45;39.33;99216.77;1750126;80;21046;-49
2021/06/26 02:50:50;;;;;;;7.25;1.95;;;;;;;29.44;39.34;99220.00;1780262;79;21122;-47
2021/06/26 02:53:16;;;;;;;9.10;2.05;;;;;;;29.41;39.36;99216.30;1751766;80;20999;-46
2021/06/26 02:55:43;;;;;;;10.93;1.80;;;;;;;29.37;39.39;99211.41;1753638;80;21042;-50
2021/06/26 02:58:09;;;;;;;7.47;1.85;;;;;;;29.32;39.49;99209.27;1761472;80;21406;-51
2021/06/26 03:00:36;;;;;;;6.65;1.80;;;;;;;29.32;39.49;99202.98;1777799;79;22242;-50
2021/06/26 03:03:03;;;;;;;13.80;1.98;;;;;;;29.28;39.45;99201.99;1758726;80;21030;-50
2021/06/26 03:05:31;;;;;;;3.92;1.77;;;;;;;29.27;39.51;99207.63;1762992;79;21039;-50
2021/06/26 03:07:59;;;;;;;9.15;2.08;;;;;;;29.32;39.45;99209.77;1754165;79;21017;-47
2021/06/26 03:10:25;;;;;;;8.03;2.00;;;;;;;29.41;39.31;99208.69;1778389;78;21075;-48
2021/06/26 03:12:53;;;;;;;10.55;2.00;;;;;;;29.47;39.16;99201.16;1786666;79;21665;-51
2021/06/26 03:15:20;;;;;;;8.90;2.00;;;;;;;29.56;39.03;99194.66;1794086;79;22493;-51
2021/06/26 03:17:46;;;;;;;4.87;2.15;;;;;;;29.65;38.87;99192.17;1783696;79;21021;-48
2021/06/26 03:20:14;;;;;;;15.68;2.12;;;;;;;29.75;38.67;99191.92;1790666;79;21116;-49
2021/06/26 03:22:40;;;;;;;13.78;3.05;;;;;;;29.86;38.54;99193.87;1785446;78;21054;-50
2021/06/26 03:25:09;;;;;;;5.22;2.10;;;;;;;29.94;38.34;99188.36;1775944;79;21592;-49
2021/06/26 03:27:37;;;;;;;15.25;2.00;;;;;;;30.00;38.24;99192.53;1798938;79;21096;-51
2021/06/26 03:30:06;;;;;;;10.20;2.25;;;;;;;30.07;38.10;99193.14;1792342;78;21467;-51
2021/06/26 03:32:33;;;;;;;8.58;2.12;;;;;;;30.13;38.06;99193.23;1769521;79;21022;-48
2021/06/26 03:35:01;;;;;;;9.20;2.20;;;;;;;30.21;37.94;99184.14;1782495;78;21758;-51
2021/06/26 03:37:27;;;;;;;8.25;2.27;;;;;;;30.29;37.86;99190.83;1791327;78;21879;-49
2021/06/26 03:39:54;;;;;;;9.88;2.30;;;;;;;30.36;37.78;99191.81;1796120;78;21245;-50
2021/06/26 03:42:21;;;;;;;5.35;2.12;;;;;;;30.43;37.68;99181.03;1792328;78;21042;-50
2021/06/26 03:44:48;;;;;;;9.13;2.22;;;;;;;30.51;37.58;99187.72;1734481;80;21039;-44
2021/06/26 03:47:15;;;;;;;5.70;2.42;;;;;;;30.58;37.47;99179.66;1769493;79;21029;-47
2021/06/26 03:49:42;;;;;;;6.15;2.05;;;;;;;30.69;37.34;99183.20;1775125;79;21112;-48
2021/06/26 03:52:09;;;;;;;7.12;1.92;;;;;;;30.77;37.24;99189.05;1773550;79;21184;-50
2021/06/26 03:54:35;;;;;;;6.67;2.12;;;;;;;30.82;37.21;99184.41;1752606;79;21025;-49
2021/06/26 03:57:02;;;;;;;4.90;2.10;;;;;;;30.89;37.16;99182.59;1770390;79;21083;-50
2021/06/26 03:59:29;;;;;;;6.53;2.20;;;;;;;30.92;37.05;99183.05;1744203;80;21053;-50
2021/06/26 04:01:56;;;;;;;7.95;2.30;;;;;;;30.99;37.03;99184.50;1776990;79;21006;-51
2021/06/26 04:04:22;;;;;;;11.00;2.85;;;;;;;31.03;36.96;99187.14;1726307;80;22227;-49
2021/06/26 04:06:49;;;;;;;11.80;2.45;;;;;;;30.99;36.96;99181.78;1760483;79;21010;-50
2021/06/26 04:09:16;;;;;;;9.10;2.30;;;;;;;30.98;37.06;99173.30;1736847;81;21031;-48
2021/06/26 04:11:43;;;;;;;7.28;2.17;;;;;;;31.02;37.08;99174.61;1772769;80;21588;-47
2021/06/26 04:14:09;;;;;;;10.20;2.47;;;;;;;31.06;36.99;99169.09;1780262;78;21025;-50
2021/06/26 04:16:37;;;;;;;7.78;2.35;;;;;;;31.10;37.01;99172.27;1759289;79;21082;-48
2021/06/26 04:19:05;;;;;;;8.33;2.25;;;;;;;31.14;36.99;99174.09;1753793;78;22330;-47
2021/06/26 04:21:32;;;;;;;5.60;2.08;;;;;;;31.18;36.94;99163.15;1779155;79;21036;-50
2021/06/26 04:23:58;;;;;;;10.72;2.55;;;;;;;31.25;36.85;99157.24;1782021;79;21101;-43
2021/06/26 04:26:25;;;;;;;11.40;2.52;;;;;;;31.31;36.81;99160.55;1699374;80;21084;-43
2021/06/26 04:28:51;;;;;;;10.53;2.65;;;;;;;31.36;36.76;99159.44;1701098;81;21143;-49
2021/06/26 04:31:19;;;;;;;5.53;2.55;;;;;;;31.40;36.67;99151.19;1750763;79;21054;-49
2021/06/26 04:33:45;;;;;;;7.62;2.25;;;;;;;31.39;36.69;99152.25;1698274;81;21076;-48
2021/06/26 04:36:14;;;;;;;4.80;2.30;;;;;;;31.39;36.68;99148.67;1781215;78;21076;-48
2021/06/26 04:38:41;;;;;;;12.53;2.50;;;;;;;31.32;36.84;99147.29;1728466;80;21015;-48
2021/06/26 04:41:08;;;;;;;13.20;2.55;;;;;;;31.21;37.12;99147.81;1747371;80;21133;-49
2021/06/26 04:43:35;;;;;;;8.78;2.70;;;;;;;31.11;37.33;99140.82;1721386;80;21116;-48
2021/06/26 04:46:01;;;;;;;10.18;2.90;;;;;;;31.02;37.53;99146.08;1741184;79;21499;-43
2021/06/26 04:48:29;;;;;;;10.50;2.72;;;;;;;30.94;37.71;99140.78;1777097;79;21039;-42
2021/06/26 04:50:56;;;;;;;9.63;2.65;;;;;;;30.87;37.84;99135.77;1758457;79;21087;-51
2021/06/26 04:53:23;;;;;;;8.28;2.15;;;;;;;30.78;37.97;99136.39;1728654;81;21151;-51
2021/06/26 04:55:52;;;;;;;8.30;2.72;;;;;;;30.69;38.19;99134.85;1718042;81;21030;-47
2021/06/26 04:58:20;;;;;;;12.68;2.60;;;;;;;30.64;38.45;99135.42;1718714;81;21066;-46
2021/06/26 05:00:51;;;;;;;13.88;2.87;;;;;;;30.56;38.71;99132.82;1711083;82;21585;-50
2021/06/26 05:03:20;;;;;;;8.10;2.50;;;;;;;30.51;38.81;99137.49;1741730;81;21517;-44
2021/06/26 05:05:48;;;;;;;5.58;2.30;;;;;;;30.44;38.91;99129.77;1738975;80;21132;-52
2021/06/26 05:08:15;;;;;;;12.93;3.30;;;;;;;30.36;38.98;99128.03;1751042;80;21078;-46
2021/06/26 05:10:44;;;;;;;6.85;2.65;;;;;;;30.29;39.10;99135.19;1753984;81;21092;-50
2021/06/26 05:13:11;;;;;;;16.50;2.90;;;;;;;30.27;39.23;99129.12;1747538;80;21086;-51
2021/06/26 05:15:39;;;;;;;9.00;2.95;;;;;;;30.25;39.32;99127.13;1717423;81;21030;-51
2021/06/26 05:18:07;;;;;;;5.92;2.45;;;;;;;30.24;39.39;99121.36;1725670;81;21175;-51
2021/06/26 05:20:33;;;;;;;8.65;2.60;;;;;;;30.23;39.45;99127.84;1718866;81;21031;-51
2021/06/26 05:23:15;;;;;;;16.07;3.12;;;;;;;30.24;39.48;99128.66;1695060;81;22363;-51
2021/06/26 05:25:43;;;;;;;8.40;2.72;;;;;;;30.24;39.49;99126.78;1702391;81;21110;-45
2021/06/26 05:28:10;;;;;;;8.88;2.47;;;;;;;30.24;39.50;99131.38;1711867;81;21034;-54
2021/06/26 05:30:36;;;;;;;11.73;2.92;;;;;;;30.23;39.54;99131.04;1743000;80;22105;-52
2021/06/26 05:33:04;;;;;;;9.58;2.80;;;;;;;30.23;39.49;99129.19;1743122;80;21031;-47
2021/06/26 05:35:31;;;;;;;9.15;2.83;;;;;;;30.23;39.55;99125.13;1720202;81;21039;-52
2021/06/26 05:37:58;;;;;;;7.92;2.70;;;;;;;30.20;39.60;99125.49;1743189;81;21086;-50
2021/06/26 05:40:25;;;;;;;8.13;2.95;;;;;;;30.20;39.67;99134.47;1742382;80;21141;-46
2021/06/26 05:42:52;;;;;;;11.93;3.30;;;;;;;30.20;39.78;99132.28;1740769;80;22604;-48
2021/06/26 05:45:19;;;;;;;14.47;2.90;;;;;;;30.20;39.86;99128.20;1723766;81;21108;-42
2021/06/26 05:47:46;;;;;;;7.47;3.02;;;;;;;30.20;39.92;99132.28;1722718;81;21065;-50
2021/06/26 05:50:12;;;;;;;12.95;3.22;;;;;;;30.17;39.94;99126.70;1716226;81;21051;-48
2021/06/26 05:52:50;;;;;;;10.13;3.10;;;;;;;30.18;39.93;99129.75;1722841;81;21085;-50
2021/06/26 05:55:17;;;;;;;11.28;2.87;;;;;;;30.18;39.88;99124.84;1733045;80;21129;-49
2021/06/26 05:57:43;;;;;;;13.32;3.15;;;;;;;30.20;39.87;99122.78;1738954;80;21048;-47
2021/06/26 06:00:12;;;;;;;11.78;3.30;;;;;;;30.22;39.92;99124.78;1754541;79;21020;-50
2021/06/26 06:02:44;;;;;;;11.90;2.92;;;;;;;30.21;39.92;99120.38;1728876;81;21073;-49
2021/06/26 06:05:13;;;;;;;13.20;3.33;;;;;;;30.22;39.92;99124.78;1758659;80;21054;-46
2021/06/26 06:07:42;;;;;;;12.70;3.33;;;;;;;30.20;39.88;99125.49;1753990;80;21538;-48
2021/06/26 06:10:11;;;;;;;7.40;3.22;;;;;;;30.19;39.88;99119.23;1706024;81;21062;-47
2021/06/26 06:12:38;;;;;;;10.10;2.90;;;;;;;30.19;39.92;99124.66;1741839;81;21031;-51
2021/06/26 06:15:08;;;;;;;9.28;3.42;;;;;;;30.19;39.93;99122.44;1733666;81;21028;-44
2021/06/26 06:17:34;;;;;;;9.75;3.20;;;;;;;30.19;39.97;99118.38;1756403;80;21440;-48
2021/06/26 06:20:04;;;;;;;9.30;3.00;;;;;;;30.17;40.04;99118.56;1754632;80;21453;-51
2021/06/26 06:22:32;;;;;;;7.83;3.50;;;;;;;30.19;40.05;99121.09;1754547;80;21033;-51
2021/06/26 06:25:01;;;;;;;8.30;3.30;;;;;;;30.19;40.09;99127.87;1753096;80;21067;-48
2021/06/26 06:27:27;;;;;;;7.90;2.60;;;;;;;30.19;40.12;99135.52;1724951;81;20983;-51
2021/06/26 06:29:56;;;;;;;10.35;3.60;;;;;;;30.20;40.12;99133.11;1762098;80;21054;-43
2021/06/26 06:32:22;;;;;;;8.98;3.25;;;;;;;30.21;40.12;99124.45;1756805;80;21055;-50
2021/06/26 06:34:49;;;;;;;7.47;3.30;;;;;;;30.23;40.16;99132.40;1728836;81;21073;-51
2021/06/26 06:37:16;;;;;;;10.70;3.55;;;;;;;30.23;40.14;99133.27;1754247;80;21044;-48
2021/06/26 06:39:43;;;;;;;12.20;3.55;;;;;;;30.24;40.17;99138.99;1726525;81;21125;-49
2021/06/26 06:42:10;;;;;;;7.28;3.17;;;;;;;30.25;40.18;99132.55;1738748;80;21082;-48
2021/06/26 06:44:37;;;;;;;10.55;3.22;;;;;;;30.27;40.16;99131.00;1754296;80;21131;-50
2021/06/26 06:47:05;;;;;;;9.85;3.25;;;;;;;30.28;40.17;99128.59;1772864;80;21014;-49
2021/06/26 06:49:31;;;;;;;12.03;3.27;;;;;;;30.28;40.17;99128.10;1757370;80;21073;-50
2021/06/26 06:51:58;;;;;;;8.20;3.25;;;;;;;30.29;40.27;99127.05;1759738;80;21038;-49
2021/06/26 06:54:25;;;;;;;13.53;3.50;;;;;;;30.31;40.41;99131.80;1763142;80;21055;-49
2021/06/26 06:56:52;;;;;;;7.95;3.40;;;;;;;30.29;40.42;99121.62;1755989;80;21178;-49
2021/06/26 06:59:19;;;;;;;14.03;3.77;;;;;;;30.31;40.41;99116.87;1770387;80;21038;-50
2021/06/26 07:01:46;;;;;;;11.85;3.58;;;;;;;30.32;40.43;99108.20;1766573;80;21048;-48
2021/06/26 07:04:12;;;;;;;8.55;3.35;;;;;;;30.32;40.37;99102.25;1745433;81;21540;-44
2021/06/26 07:06:39;;;;;;;8.53;3.55;;;;;;;30.35;40.31;99110.02;1752422;81;21578;-50
2021/06/26 07:09:05;;;;;;;13.83;3.67;;;;;;;30.35;40.31;99104.59;1719869;81;21033;-51
2021/06/26 07:11:32;;;;;;;8.68;3.60;;;;;;;30.37;40.34;99107.97;1754450;81;21092;-45
2021/06/26 07:13:59;;;;;;;8.63;3.40;;;;;;;30.38;40.35;99109.67;1759442;80;21550;-50
2021/06/26 07:16:25;;;;;;;9.48;3.65;;;;;;;30.41;40.29;99111.67;1732501;80;21037;-52
2021/06/26 07:18:53;;;;;;;11.70;4.53;;;;;;;30.42;40.33;99115.55;1736714;80;21088;-52
2021/06/26 07:21:19;;;;;;;6.58;3.83;;;;;;;30.43;40.36;99113.17;1755086;79;21557;-48
2021/06/26 07:23:46;;;;;;;4.28;3.10;;;;;;;30.45;40.31;99114.34;1765238;80;21049;-50
2021/06/26 07:26:12;;;;;;;7.72;2.87;;;;;;;30.46;40.24;99106.50;1751826;79;21054;-49
2021/06/26 07:28:39;;;;;;;10.03;3.22;;;;;;;30.48;40.20;99104.43;1728718;79;21075;-44
2021/06/26 07:31:07;;;;;;;10.48;3.45;;;;;;;30.49;40.20;99102.05;1754405;80;21481;-51
2021/06/26 07:33:34;;;;;;;8.00;3.55;;;;;;;30.51;40.30;99102.70;1758726;79;21151;-49
2021/06/26 07:36:02;;;;;;;7.05;3.35;;;;;;;30.53;40.29;99100.63;1760951;80;21058;-50
2021/06/26 07:38:28;;;;;;;11.00;3.50;;;;;;;30.53;40.31;99098.77;1694018;82;21533;-44
2021/06/26 07:40:55;;;;;;;12.68;3.83;;;;;;;30.56;40.33;99102.95;1714633;81;21063;-49
2021/06/26 07:43:22;;;;;;;12.58;3.33;;;;;;;30.56;40.27;99094.81;1757733;80;22449;-51
2021/06/26 07:45:49;;;;;;;8.73;3.60;;;;;;;30.59;40.24;99103.11;1741020;79;21505;-45
2021/06/26 07:48:15;;;;;;;11.53;3.77;;;;;;;30.60;40.19;99104.27;1739522;79;21042;-49
2021/06/26 07:50:43;;;;;;;10.13;3.87;;;;;;;30.61;40.20;99097.78;1723039;80;21064;-43
2021/06/26 07:53:09;;;;;;;7.78;3.77;;;;;;;30.64;40.16;99101.48;1768722;79;21053;-43
2021/06/26 07:55:36;;;;;;;6.35;3.20;;;;;;;30.66;40.12;99100.77;1738733;79;21416;-51
2021/06/26 07:58:03;;;;;;;8.80;3.60;;;;;;;30.68;40.12;99108.22;1773029;79;21153;-43
2021/06/26 08:00:30;;;;;;;5.85;3.12;;;;;;;30.70;40.11;99107.50;1782244;78;20946;-46
2021/06/26 08:02:56;;;;;;;12.15;3.47;;;;;;;30.71;40.08;99106.45;1794766;78;22319;-46
2021/06/26 08:05:23;;;;;;;8.58;3.30;;;;;;;30.75;40.18;99110.48;1788272;78;21317;-44
2021/06/26 08:07:53;;;;;;;15.13;3.80;;;;;;;30.78;40.54;99107.05;1789183;78;21070;-42
2021/06/26 08:10:20;;;;;;;11.63;3.80;;;;;;;30.81;40.90;99108.02;1775253;78;22324;-50
2021/06/26 08:12:48;;;;;;;14.63;3.60;;;;;;;30.85;41.25;99110.66;1775046;78;21143;-48
2021/06/26 08:15:17;;;;;;;8.65;3.62;;;;;;;30.87;41.22;99109.97;1778726;78;21044;-54
2021/06/26 08:17:44;;;;;;;14.95;5.05;;;;;;;30.90;41.95;99110.41;1784276;78;22214;-48
2021/06/26 08:20:11;;;;;;;31.70;19.67;;;;;;;30.94;42.73;99114.97;1780525;78;21070;-55
2021/06/26 08:22:40;;;;;;;28.98;15.50;;;;;;;30.95;43.01;99109.87;1741453;79;21717;-49
2021/06/26 08:25:09;;;;;;;18.23;10.05;;;;;;;30.98;42.78;99113.53;1779248;79;21952;-52
2021/06/26 08:27:35;;;;;;;19.00;7.95;;;;;;;31.02;42.89;99110.77;1779384;79;21034;-50
2021/06/26 08:30:05;;;;;;;13.72;6.35;;;;;;;31.05;42.80;99104.94;1780576;79;21598;-51
2021/06/26 08:32:31;;;;;;;13.45;6.22;;;;;;;31.10;42.69;99101.61;1793459;78;22176;-47
2021/06/26 08:34:59;;;;;;;21.27;10.20;;;;;;;31.13;43.02;99103.11;1779186;78;22636;-48
2021/06/26 08:37:25;;;;;;;21.00;9.05;;;;;;;31.16;43.36;99100.01;1772428;79;20987;-48
2021/06/26 08:39:52;;;;;;;16.25;7.65;;;;;;;31.18;43.42;99104.72;1746720;80;21003;-48
2021/06/26 08:42:20;;;;;;;12.07;5.40;;;;;;;31.20;43.55;99102.11;1759853;79;21090;-46
2021/06/26 08:44:49;;;;;;;15.45;5.30;;;;;;;31.23;42.98;99098.17;1764631;80;21082;-50
2021/06/26 08:47:16;;;;;;;8.95;4.15;;;;;;;31.26;42.97;99097.78;1763314;80;21152;-47
2021/06/26 08:49:45;;;;;;;9.60;4.83;;;;;;;31.29;42.74;99102.83;1779973;78;21434;-47
2021/06/26 08:52:11;;;;;;;11.48;3.55;;;;;;;31.30;42.42;99099.05;1751631;78;21464;-47
2021/06/26 08:54:38;;;;;;;18.80;4.85;;;;;;;31.32;42.13;99098.36;1778754;79;21047;-46
2021/06/26 08:57:07;;;;;;;15.98;4.17;;;;;;;31.33;42.14;99095.95;1742125;80;21010;-50
2021/06/26 08:59:34;;;;;;;11.75;4.60;;;;;;;31.34;42.49;99085.41;1780589;79;21102;-50
2021/06/26 09:02:01;;;;;;;12.43;4.85;;;;;;;31.35;43.09;99088.95;1767194;78;22117;-50
2021/06/26 09:04:28;;;;;;;12.58;4.62;;;;;;;31.35;43.40;99088.42;1812397;78;21006;-46
2021/06/26 09:06:58;;;;;;;11.78;4.42;;;;;;;31.36;43.27;99082.49;1806917;78;21136;-50
2021/06/26 09:09:32;;;;;;;10.35;3.98;;;;;;;31.37;42.69;99082.80;1787079;78;21426;-49
2021/06/26 09:12:02;;;;;;;13.05;4.22;;;;;;;31.39;43.03;99079.35;1747058;78;21088;-50
2021/06/26 09:14:29;;;;;;;14.80;4.70;;;;;;;31.39;43.44;99074.77;1778625;78;21070;-48
2021/06/26 09:16:56;;;;;;;11.57;3.85;;;;;;;31.40;43.59;99065.56;1785358;77;21023;-51
2021/06/26 09:19:23;;;;;;;11.12;3.77;;;;;;;31.43;43.79;99068.42;1777463;78;21090;-49
2021/06/26 09:22:06;;;;;;;11.48;4.03;;;;;;;31.44;43.73;99069.58;1768240;78;21403;-46
2021/06/26 09:24:46;;;;;;;11.50;3.70;;;;;;;31.46;43.56;99062.58;1765862;78;21463;-50
2021/06/26 09:27:16;;;;;;;13.00;5.17;;;;;;;31.46;43.42;99059.34;1780111;77;22315;-51
2021/06/26 09:29:54;;;;;;;11.45;4.83;;;;;;;31.47;43.25;99058.31;1769709;77;21062;-46
2021/06/26 09:32:29;;;;;;;7.83;3.95;;;;;;;31.48;43.42;99057.78;1762384;77;21027;-46
2021/06/26 09:34:57;;;;;;;10.10;3.77;;;;;;;31.49;43.43;99059.47;1735512;80;21599;-48
2021/06/26 09:37:30;;;;;;;16.30;4.28;;;;;;;31.51;43.64;99056.06;1764593;78;21806;-50
2021/06/26 09:39:59;;;;;;;8.90;3.90;;;;;;;31.54;43.85;99056.16;1761150;78;21053;-51
2021/06/26 09:42:37;;;;;;;14.05;3.77;;;;;;;31.54;44.12;99060.23;1786596;77;21623;-49
2021/06/26 09:45:09;;;;;;;6.42;4.03;;;;;;;31.56;43.78;99051.39;1769762;78;21662;-50
2021/06/26 09:47:45;;;;;;;9.03;3.42;;;;;;;31.57;44.08;99053.05;1762820;77;21074;-49
2021/06/26 09:50:20;;;;;;;9.65;4.03;;;;;;;31.58;43.85;99049.30;1744458;79;21270;-48
2021/06/26 09:52:55;;;;;;;11.45;4.05;;;;;;;31.60;43.96;99052.65;1756274;79;21014;-47
2021/06/26 09:55:27;;;;;;;6.03;3.20;;;;;;;31.62;44.34;99049.20;1764540;78;21065;-48
2021/06/26 09:58:00;;;;;;;14.00;3.60;;;;;;;31.64;44.56;99060.71;1772847;78;21026;-49
2021/06/26 10:00:29;;;;;;;14.98;3.72;;;;;;;31.66;43.94;99060.02;1794208;78;22235;-49
2021/06/26 10:02:57;;;;;;;6.58;3.37;;;;;;;31.68;43.63;99057.92;1756567;79;21845;-46
2021/06/26 10:05:23;;;;;;;9.70;3.42;;;;;;;31.68;43.93;99055.73;1734154;81;21100;-46
2021/06/26 10:07:52;;;;;;;10.20;4.30;;;;;;;31.68;43.68;99048.41;1754435;81;21051;-47
2021/06/26 10:10:22;;;;;;;9.80;4.60;;;;;;;31.69;43.96;99054.17;1753603;80;21085;-47
2021/06/26 10:12:51;;;;;;;13.83;5.55;;;;;;;31.72;43.78;99051.56;1759137;80;21096;-49
2021/06/26 10:15:22;;;;;;;11.53;4.53;;;;;;;31.74;43.48;99048.97;1742054;80;21018;-48
2021/06/26 10:17:52;;;;;;;17.57;6.25;;;;;;;31.76;43.47;99049.60;1736811;80;21488;-48
2021/06/26 10:20:22;;;;;;;19.52;7.15;;;;;;;31.78;43.54;99046.16;1737701;80;21058;-49
2021/06/26 10:23:00;;;;;;;15.35;7.47;;;;;;;31.80;43.28;99050.03;1727571;80;21051;-52
2021/06/26 10:25:32;;;;;;;14.18;6.53;;;;;;;31.79;42.97;99030.16;1697355;80;21425;-48
2021/06/26 10:28:16;;;;;;;15.58;6.75;;;;;;;31.79;43.04;99032.02;1734509;80;22007;-47
2021/06/26 10:30:42;;;;;;;11.43;5.72;;;;;;;31.78;43.34;99023.03;1708244;81;20979;-51
2021/06/26 10:33:11;;;;;;;14.63;5.62;;;;;;;31.77;43.51;99015.91;1738035;79;21068;-52
2021/06/26 10:35:40;;;;;;;13.62;4.65;;;;;;;31.77;43.86;99019.98;1752790;79;21545;-52
2021/06/26 10:38:10;;;;;;;11.45;4.40;;;;;;;31.79;43.71;99008.41;1734503;79;21591;-49
2021/06/26 10:40:48;;;;;;;8.25;4.05;;;;;;;31.82;43.42;99001.70;1748689;79;21141;-51
2021/06/26 10:43:28;;;;;;;9.13;3.80;;;;;;;31.83;43.50;98987.90;1742968;80;21047;-48
2021/06/26 10:46:15;;;;;;;10.25;4.22;;;;;;;31.86;43.68;98982.59;1737426;80;21106;-47
2021/06/26 10:49:05;;;;;;;7.83;3.50;;;;;;;31.88;43.58;98981.02;1744306;79;21046;-45
2021/06/26 10:51:39;;;;;;;16.42;9.68;;;;;;;31.91;43.35;98966.98;1742918;79;21072;-48
2021/06/26 10:54:16;;;;;;;23.42;11.50;;;;;;;31.90;43.67;98970.77;1715426;80;22179;-48
2021/06/26 10:56:44;;;;;;;15.98;6.37;;;;;;;31.92;43.75;98974.95;1753533;79;21592;-48
2021/06/26 10:59:19;;;;;;;12.35;5.05;;;;;;;31.97;43.60;98977.06;1719310;79;21062;-48
2021/06/26 11:02:02;;;;;;;9.98;4.25;;;;;;;31.99;43.24;98975.83;1765231;78;21489;-47
2021/06/26 11:04:29;;;;;;;10.15;4.05;;;;;;;32.02;43.19;98982.19;1774323;78;21093;-51
2021/06/26 11:07:10;;;;;;;8.90;3.37;;;;;;;32.02;43.02;98984.08;1774726;78;22099;-50
2021/06/26 11:09:43;;;;;;;7.40;3.15;;;;;;;32.02;42.50;98994.97;1774771;78;21032;-46
2021/06/26 11:12:15;;;;;;;12.07;4.78;;;;;;;32.01;42.04;98991.91;1764964;79;21528;-49
2021/06/26 11:14:55;;;;;;;8.78;3.52;;;;;;;32.01;41.52;98993.28;1776269;78;21065;-49
2021/06/26 11:17:25;;;;;;;9.58;3.85;;;;;;;31.98;41.29;98991.82;1758046;79;21127;-48
2021/06/26 11:19:52;;;;;;;6.72;3.83;;;;;;;31.94;40.76;98997.87;1749492;80;21012;-52
2021/06/26 11:22:20;;;;;;;6.17;2.92;;;;;;;31.88;40.64;99003.61;1773655;78;21056;-52
2021/06/26 11:24:46;;;;;;;10.43;3.00;;;;;;;31.83;39.71;98995.23;1747665;78;21039;-49
2021/06/26 11:27:19;;;;;;;5.10;2.85;;;;;;;31.77;39.60;99005.02;1791549;77;21014;-46
2021/06/26 11:29:48;;;;;;;10.13;3.58;;;;;;;31.67;39.35;98996.41;1774014;78;20982;-48
2021/06/26 11:32:23;;;;;;;9.23;3.47;;;;;;;31.56;39.57;99014.68;1766594;78;21132;-49
2021/06/26 11:35:03;;;;;;;10.15;2.77;;;;;;;31.46;38.85;99010.40;1790936;78;21030;-46